createdAt,value
2022-10-31T00:00:09.667Z,99533.63
2022-10-31T00:02:36.419Z,99542.13
2022-10-31T00:05:03.106Z,99535.22
2022-10-31T00:07:29.670Z,99536.97
2022-10-31T00:09:57.536Z,99537.13
2022-10-31T00:12:24.148Z,99539.97
2022-10-31T00:14:50.678Z,99540.44
2022-10-31T00:17:17.185Z,99544.88
2022-10-31T00:19:43.819Z,99548.25
2022-10-31T00:22:10.335Z,99548.88
2022-10-31T00:24:36.922Z,99555.28
2022-10-31T00:27:04.805Z,99557.50
2022-10-31T00:29:31.333Z,99555.41
2022-10-31T00:31:57.869Z,99557.31
2022-10-31T00:34:24.393Z,99559.22
2022-10-31T00:36:50.945Z,99568.19
2022-10-31T00:39:17.443Z,99566.59
2022-10-31T00:41:44.084Z,99562.91
2022-10-31T00:44:11.943Z,99574.88
2022-10-31T00:46:38.485Z,99569.44
2022-10-31T00:49:05.105Z,99580.03
2022-10-31T00:51:31.680Z,99577.31
2022-10-31T00:53:58.296Z,99579.53
2022-10-31T00:56:24.836Z,99586.38
2022-10-31T00:58:51.375Z,99584.78
2022-10-31T01:01:19.441Z,99585.72
2022-10-31T01:03:46.039Z,99581.91
2022-10-31T01:06:14.066Z,99583.63
2022-10-31T01:08:41.271Z,99587.28
2022-10-31T01:11:11.924Z,99590.13
2022-10-31T01:13:38.559Z,99593.44
2022-10-31T01:16:06.866Z,99589.44
2022-10-31T01:18:35.249Z,99590.88
2022-10-31T01:21:04.503Z,99581.56
2022-10-31T01:23:31.297Z,99598.78
2022-10-31T01:26:07.724Z,99584.72
2022-10-31T01:28:35.475Z,99589.94
2022-10-31T01:31:03.781Z,99578.59
2022-10-31T01:33:30.279Z,99583.84
2022-10-31T01:35:58.289Z,99579.31
2022-10-31T01:38:25.252Z,99586.66
2022-10-31T01:40:51.793Z,99590.81
2022-10-31T01:43:18.578Z,99587.59
2022-10-31T01:45:51.418Z,99579.75
2022-10-31T01:48:22.150Z,99587.41
2022-10-31T01:50:52.137Z,99589.31
2022-10-31T01:53:25.879Z,99588.53
2022-10-31T01:55:54.086Z,99583.38
2022-10-31T01:58:24.039Z,99581.63
2022-10-31T02:00:56.821Z,99590.06
2022-10-31T02:03:24.990Z,99588.44
2022-10-31T02:05:53.928Z,99591.78
2022-10-31T02:08:26.486Z,99589.19
2022-10-31T02:10:53.160Z,99587.56
2022-10-31T02:13:21.155Z,99588.69
2022-10-31T02:15:51.200Z,99597.13
2022-10-31T02:18:19.364Z,99591.81
2022-10-31T02:20:57.238Z,99595.66
2022-10-31T02:23:53.248Z,99588.91
2022-10-31T02:26:42.474Z,99590.81
2022-10-31T02:29:39.040Z,99575.97
2022-10-31T02:32:13.448Z,99576.25
2022-10-31T02:34:49.483Z,99575.25
2022-10-31T02:37:26.023Z,99581.78
2022-10-31T02:40:00.031Z,99591.38
2022-10-31T02:42:33.087Z,99580.50
2022-10-31T02:45:07.068Z,99580.19
2022-10-31T02:47:38.429Z,99578.59
2022-10-31T02:50:11.929Z,99580.19
2022-10-31T02:52:38.466Z,99571.56
2022-10-31T02:55:13.514Z,99569.16
2022-10-31T02:57:42.673Z,99579.50
2022-10-31T03:00:10.586Z,99570.06
2022-10-31T03:03:01.216Z,99572.28
2022-10-31T03:05:46.782Z,99567.47
2022-10-31T03:08:22.444Z,99571.56
2022-10-31T03:10:55.896Z,99567.38
2022-10-31T03:13:33.251Z,99576.72
2022-10-31T03:16:08.548Z,99581.13
2022-10-31T03:18:40.291Z,99579.81
2022-10-31T03:21:11.205Z,99586.34
2022-10-31T03:23:40.321Z,99594.31
2022-10-31T03:26:09.752Z,99591.09
2022-10-31T03:28:40.389Z,99585.66
2022-10-31T03:31:08.696Z,99591.59
2022-10-31T03:33:39.718Z,99584.56
2022-10-31T03:36:09.839Z,99595.69
2022-10-31T03:38:37.583Z,99592.47
2022-10-31T03:41:06.881Z,99601.25
2022-10-31T03:43:39.068Z,99593.19
2022-10-31T03:46:06.815Z,99600.00
2022-10-31T03:48:33.896Z,99598.44
2022-10-31T03:51:08.589Z,99605.53
2022-10-31T03:53:40.670Z,99606.75
2022-10-31T03:56:13.781Z,99603.84
2022-10-31T03:58:45.652Z,99604.13
2022-10-31T04:01:17.077Z,99607.13
2022-10-31T04:03:45.527Z,99597.22
2022-10-31T04:06:16.260Z,99601.94
2022-10-31T04:08:46.604Z,99603.03
2022-10-31T04:11:14.691Z,99599.28
2022-10-31T04:13:43.238Z,99596.88
2022-10-31T04:16:14.218Z,99588.56
2022-10-31T04:18:43.976Z,99596.47
2022-10-31T04:21:10.628Z,99604.91
2022-10-31T04:23:38.641Z,99598.66
2022-10-31T04:26:05.514Z,99601.19
2022-10-31T04:28:32.218Z,99606.09
2022-10-31T04:30:58.903Z,99597.75
2022-10-31T04:33:25.412Z,99602.06
2022-10-31T04:35:51.906Z,99601.56
2022-10-31T04:38:18.424Z,99612.72
2022-10-31T04:40:47.186Z,99595.94
2022-10-31T04:43:13.981Z,99596.75
2022-10-31T04:45:40.518Z,99609.78
2022-10-31T04:48:07.036Z,99613.19
2022-10-31T04:50:33.545Z,99609.69
2022-10-31T04:53:00.069Z,99610.31
2022-10-31T04:55:26.579Z,99608.19
2022-10-31T04:57:54.473Z,99603.03
2022-10-31T05:00:22.847Z,99610.06
2022-10-31T05:02:50.337Z,99605.56
2022-10-31T05:05:18.886Z,99603.97
2022-10-31T05:07:47.590Z,99602.94
2022-10-31T05:10:15.842Z,99605.13
2022-10-31T05:12:47.009Z,99585.75
2022-10-31T05:15:15.605Z,99591.75
2022-10-31T05:17:42.126Z,99593.97
2022-10-31T05:20:09.502Z,99603.19
2022-10-31T05:22:36.013Z,99601.88
2022-10-31T05:25:02.563Z,99592.41
2022-10-31T05:27:29.283Z,99593.03
2022-10-31T05:29:55.972Z,99588.19
2022-10-31T05:32:25.209Z,99581.16
2022-10-31T05:34:51.701Z,99585.19
2022-10-31T05:37:18.185Z,99582.19
2022-10-31T05:39:44.801Z,99590.63
2022-10-31T05:42:11.298Z,99590.38
2022-10-31T05:44:37.795Z,99584.44
2022-10-31T05:47:04.344Z,99595.59
2022-10-31T05:49:32.214Z,99591.28
2022-10-31T05:51:58.731Z,99590.25
2022-10-31T05:54:25.558Z,99601.88
2022-10-31T05:56:52.048Z,99594.66
2022-10-31T05:59:18.572Z,99593.06
2022-10-31T06:01:45.229Z,99590.63
2022-10-31T06:04:12.000Z,99598.75
2022-10-31T06:06:39.965Z,99595.25
2022-10-31T06:09:06.458Z,99604.16
2022-10-31T06:11:32.970Z,99595.81
2022-10-31T06:13:59.622Z,99599.94
2022-10-31T06:16:26.116Z,99597.53
2022-10-31T06:18:52.621Z,99600.22
2022-10-31T06:21:19.475Z,99604.31
2022-10-31T06:23:47.352Z,99599.72
2022-10-31T06:26:13.984Z,99606.75
2022-10-31T06:28:40.662Z,99612.34
2022-10-31T06:31:07.427Z,99618.28
2022-10-31T06:33:34.207Z,99618.00
2022-10-31T06:36:00.847Z,99614.09
2022-10-31T06:38:27.714Z,99611.63
2022-10-31T06:40:55.802Z,99610.25
2022-10-31T06:43:23.046Z,99607.72
2022-10-31T06:45:49.573Z,99599.31
2022-10-31T06:48:18.022Z,99604.97
2022-10-31T06:50:45.255Z,99614.41
2022-10-31T06:53:12.199Z,99604.88
2022-10-31T06:55:39.175Z,99602.38
2022-10-31T06:58:07.577Z,99600.19
2022-10-31T07:00:34.422Z,99613.94
2022-10-31T07:03:02.637Z,99609.53
2022-10-31T07:05:30.285Z,99609.72
2022-10-31T07:07:58.949Z,99612.88
2022-10-31T07:10:27.589Z,99609.78
2022-10-31T07:12:58.273Z,99610.41
2022-10-31T07:15:27.635Z,99609.50
2022-10-31T07:17:54.644Z,99608.53
2022-10-31T07:20:21.274Z,99607.25
2022-10-31T07:22:50.525Z,99603.84
2022-10-31T07:25:17.303Z,99600.13
2022-10-31T07:27:44.099Z,99600.53
2022-10-31T07:30:12.498Z,99604.94
2022-10-31T07:32:41.270Z,99595.59
2022-10-31T07:35:08.707Z,99611.19
2022-10-31T07:37:35.468Z,99602.84
2022-10-31T07:40:02.182Z,99605.03
2022-10-31T07:42:28.724Z,99600.19
2022-10-31T07:44:57.581Z,99612.94
2022-10-31T07:47:24.401Z,99611.59
2022-10-31T07:49:52.268Z,99607.22
2022-10-31T07:52:18.831Z,99599.16
2022-10-31T07:54:45.329Z,99596.19
2022-10-31T07:57:11.874Z,99591.91
2022-10-31T07:59:38.489Z,99595.81
2022-10-31T08:02:05.168Z,99591.53
2022-10-31T08:04:31.710Z,99594.44
2022-10-31T08:06:59.681Z,99601.50
2022-10-31T08:09:26.219Z,99600.88
2022-10-31T08:11:53.807Z,99601.03
2022-10-31T08:14:20.454Z,99597.22
2022-10-31T08:16:47.002Z,99591.47
2022-10-31T08:19:13.812Z,99588.59
2022-10-31T08:21:40.495Z,99596.50
2022-10-31T08:24:08.544Z,99595.44
2022-10-31T08:26:35.099Z,99601.25
2022-10-31T08:29:01.674Z,99601.66
2022-10-31T08:31:33.171Z,99596.44
2022-10-31T08:34:01.067Z,99596.16
2022-10-31T08:36:28.339Z,99598.91
2022-10-31T08:39:00.605Z,99603.75
2022-10-31T08:41:30.365Z,99603.59
2022-10-31T08:43:57.189Z,99602.31
2022-10-31T08:46:23.760Z,99594.28
2022-10-31T08:48:50.511Z,99592.03
2022-10-31T08:51:17.144Z,99590.91
2022-10-31T08:53:43.707Z,99583.00
2022-10-31T08:56:10.339Z,99591.00
2022-10-31T08:58:40.335Z,99580.38
2022-10-31T09:01:07.222Z,99578.25
2022-10-31T09:03:33.936Z,99580.66
2022-10-31T09:06:02.497Z,99579.06
2022-10-31T09:08:31.328Z,99581.75
2022-10-31T09:10:58.356Z,99582.88
2022-10-31T09:13:28.166Z,99575.63
2022-10-31T09:15:57.604Z,99584.06
2022-10-31T09:18:25.214Z,99580.00
2022-10-31T09:20:51.832Z,99567.44
2022-10-31T09:23:19.951Z,99561.97
2022-10-31T09:25:50.495Z,99573.38
2022-10-31T09:28:19.566Z,99566.25
2022-10-31T09:30:48.040Z,99561.75
2022-10-31T09:33:16.345Z,99565.41
2022-10-31T09:35:42.958Z,99556.28
2022-10-31T09:38:11.246Z,99564.66
2022-10-31T09:40:40.430Z,99561.97
2022-10-31T09:43:15.941Z,99568.22
2022-10-31T09:45:52.655Z,99567.25
2022-10-31T09:48:38.605Z,99557.06
2022-10-31T09:51:09.642Z,99566.03
2022-10-31T09:53:41.107Z,99558.28
2022-10-31T09:56:10.871Z,99561.69
2022-10-31T09:58:42.519Z,99561.94
2022-10-31T10:01:29.969Z,99553.84
2022-10-31T10:04:03.022Z,99546.94
2022-10-31T10:06:33.328Z,99556.38
2022-10-31T10:09:00.458Z,99549.75
2022-10-31T10:11:43.769Z,99546.13
2022-10-31T10:14:27.691Z,99540.09
2022-10-31T10:17:08.060Z,99546.53
2022-10-31T10:19:53.580Z,99541.72
2022-10-31T10:22:28.121Z,99539.22
2022-10-31T10:25:05.699Z,99532.97
2022-10-31T10:27:43.962Z,99534.66
2022-10-31T10:30:16.223Z,99528.25
2022-10-31T10:32:50.932Z,99525.38
2022-10-31T10:35:25.337Z,99528.06
2022-10-31T10:37:57.029Z,99528.44
2022-10-31T10:40:26.057Z,99524.66
2022-10-31T10:43:02.229Z,99518.94
2022-10-31T10:45:28.934Z,99505.22
2022-10-31T10:48:05.738Z,99510.75
2022-10-31T10:50:37.366Z,99511.66
2022-10-31T10:53:15.485Z,99501.25
2022-10-31T10:55:50.598Z,99500.25
2022-10-31T10:58:17.153Z,99501.81
2022-10-31T11:00:45.872Z,99496.97
2022-10-31T11:03:12.856Z,99495.94
2022-10-31T11:05:45.892Z,99487.41
2022-10-31T11:08:27.341Z,99475.22
2022-10-31T11:11:00.008Z,99483.66
2022-10-31T11:13:26.860Z,99471.03
2022-10-31T11:16:03.173Z,99468.81
2022-10-31T11:18:31.785Z,99471.75
2022-10-31T11:21:01.631Z,99463.69
2022-10-31T11:23:29.961Z,99457.91
2022-10-31T11:25:58.265Z,99452.84
2022-10-31T11:28:25.501Z,99449.44
2022-10-31T11:30:55.441Z,99448.47
2022-10-31T11:33:27.601Z,99445.06
2022-10-31T11:35:57.905Z,99455.53
2022-10-31T11:38:33.898Z,99448.63
2022-10-31T11:41:10.692Z,99453.63
2022-10-31T11:43:37.658Z,99448.53
2022-10-31T11:46:10.993Z,99452.50
2022-10-31T11:48:38.036Z,99449.06
2022-10-31T11:51:05.562Z,99438.28
2022-10-31T11:53:35.010Z,99431.13
2022-10-31T11:56:05.748Z,99437.31
2022-10-31T11:58:32.811Z,99441.66
2022-10-31T12:00:59.667Z,99434.81
2022-10-31T12:03:39.482Z,99424.50
2022-10-31T12:06:12.021Z,99420.63
2022-10-31T12:08:42.069Z,99412.72
2022-10-31T12:11:20.037Z,99413.53
2022-10-31T12:14:04.195Z,99414.59
2022-10-31T12:16:37.690Z,99411.44
2022-10-31T12:19:07.074Z,99400.41
2022-10-31T12:21:49.270Z,99400.41
2022-10-31T12:24:29.986Z,99400.56
2022-10-31T12:27:08.951Z,99388.38
2022-10-31T12:29:51.636Z,99385.09
2022-10-31T12:32:30.381Z,99379.09
2022-10-31T12:35:21.797Z,99389.19
2022-10-31T12:38:02.244Z,99380.59
2022-10-31T12:40:52.257Z,99373.22
2022-10-31T12:43:34.261Z,99377.00
2022-10-31T12:46:02.875Z,99372.19
2022-10-31T12:48:57.521Z,99362.84
2022-10-31T12:51:34.418Z,99358.09
2022-10-31T12:54:23.572Z,99345.94
2022-10-31T12:57:01.207Z,99347.88
2022-10-31T12:59:33.612Z,99339.63
2022-10-31T13:02:07.936Z,99338.00
2022-10-31T13:04:45.769Z,99336.41
2022-10-31T13:07:16.563Z,99328.38
2022-10-31T13:09:55.557Z,99319.69
2022-10-31T13:12:25.157Z,99330.78
2022-10-31T13:14:55.226Z,99322.91
2022-10-31T13:17:28.780Z,99321.38
2022-10-31T13:20:04.188Z,99323.41
2022-10-31T13:22:33.383Z,99326.63
2022-10-31T13:25:10.614Z,99330.44
2022-10-31T13:27:44.886Z,99328.88
2022-10-31T13:30:16.222Z,99319.75
2022-10-31T13:32:47.546Z,99318.44
2022-10-31T13:35:20.817Z,99309.66
2022-10-31T13:37:54.993Z,99307.25
2022-10-31T13:40:31.414Z,99299.38
2022-10-31T13:43:07.935Z,99298.16
2022-10-31T13:45:34.555Z,99301.97
2022-10-31T13:48:18.087Z,99307.06
2022-10-31T13:50:56.882Z,99293.72
2022-10-31T13:53:36.127Z,99286.00
2022-10-31T13:56:12.197Z,99283.91
2022-10-31T13:59:00.998Z,99279.66
2022-10-31T14:01:28.466Z,99281.19
2022-10-31T14:04:12.256Z,99274.38
2022-10-31T14:06:50.003Z,99266.78
2022-10-31T14:09:24.258Z,99267.09
2022-10-31T14:11:51.943Z,99258.41
2022-10-31T14:14:21.691Z,99259.19
2022-10-31T14:16:56.668Z,99248.56
2022-10-31T14:19:24.002Z,99251.63
2022-10-31T14:21:51.701Z,99255.53
2022-10-31T14:24:34.193Z,99250.03
2022-10-31T14:27:03.607Z,99255.00
2022-10-31T14:29:32.957Z,99248.25
2022-10-31T14:32:05.398Z,99252.91
2022-10-31T14:34:34.865Z,99248.13
2022-10-31T14:37:20.074Z,99246.88
2022-10-31T14:40:02.728Z,99237.84
2022-10-31T14:42:42.795Z,99236.22
2022-10-31T14:45:24.852Z,99231.06
2022-10-31T14:48:07.093Z,99225.50
2022-10-31T14:50:43.561Z,99212.38
2022-10-31T14:53:18.183Z,99206.34
2022-10-31T14:55:48.326Z,99196.75
2022-10-31T14:58:20.621Z,99193.47
2022-10-31T15:00:49.159Z,99195.34
2022-10-31T15:03:19.329Z,99198.50
2022-10-31T15:05:50.907Z,99193.72
2022-10-31T15:08:30.640Z,99190.88
2022-10-31T15:10:57.483Z,99201.69
2022-10-31T15:13:24.105Z,99202.88
2022-10-31T15:15:54.785Z,99195.72
2022-10-31T15:18:25.371Z,99191.09
2022-10-31T15:20:53.373Z,99184.69
2022-10-31T15:23:24.369Z,99190.84
2022-10-31T15:25:51.092Z,99195.13
2022-10-31T15:28:24.286Z,99192.59
2022-10-31T15:30:54.840Z,99181.19
2022-10-31T15:33:23.974Z,99181.91
2022-10-31T15:35:58.514Z,99172.81
2022-10-31T15:38:26.102Z,99166.81
2022-10-31T15:40:55.555Z,99171.09
2022-10-31T15:43:22.667Z,99174.13
2022-10-31T15:45:49.687Z,99167.34
2022-10-31T15:48:19.971Z,99168.44
2022-10-31T15:50:50.433Z,99163.25
2022-10-31T15:53:19.834Z,99171.34
2022-10-31T15:55:50.181Z,99165.34
2022-10-31T15:58:18.372Z,99167.56
2022-10-31T16:00:45.225Z,99164.31
2022-10-31T16:03:24.760Z,99159.47
2022-10-31T16:05:53.097Z,99165.59
2022-10-31T16:08:25.179Z,99156.00
2022-10-31T16:10:51.913Z,99159.66
2022-10-31T16:13:18.819Z,99155.91
2022-10-31T16:15:55.830Z,99157.25
2022-10-31T16:18:37.205Z,99151.44
2022-10-31T16:21:04.159Z,99149.25
2022-10-31T16:23:30.894Z,99151.38
2022-10-31T16:25:57.462Z,99151.31
2022-10-31T16:28:28.858Z,99144.59
2022-10-31T16:30:58.600Z,99157.16
2022-10-31T16:33:28.310Z,99150.50
2022-10-31T16:36:04.745Z,99155.66
2022-10-31T16:38:45.100Z,99160.31
2022-10-31T16:41:11.598Z,99164.47
2022-10-31T16:43:38.146Z,99159.63
2022-10-31T16:46:05.080Z,99157.13
2022-10-31T16:48:31.659Z,99163.22
2022-10-31T16:50:59.509Z,99155.63
2022-10-31T16:53:26.055Z,99165.72
2022-10-31T16:55:56.060Z,99176.22
2022-10-31T16:58:25.130Z,99167.88
2022-10-31T17:00:52.520Z,99183.44
2022-10-31T17:03:19.583Z,99178.66
2022-10-31T17:05:46.348Z,99175.41
2022-10-31T17:08:14.431Z,99176.00
2022-10-31T17:10:42.720Z,99164.84
2022-10-31T17:13:14.402Z,99167.75
2022-10-31T17:15:44.666Z,99162.19
2022-10-31T17:18:12.770Z,99160.41
2022-10-31T17:20:39.515Z,99159.06
2022-10-31T17:23:06.069Z,99162.41
2022-10-31T17:25:33.923Z,99157.50
2022-10-31T17:28:00.427Z,99150.81
2022-10-31T17:30:27.270Z,99152.19
2022-10-31T17:32:54.080Z,99154.28
2022-10-31T17:35:21.331Z,99146.78
2022-10-31T17:37:48.112Z,99145.78
2022-10-31T17:40:16.931Z,99146.81
2022-10-31T17:42:49.069Z,99136.44
2022-10-31T17:45:15.727Z,99122.91
2022-10-31T17:47:42.270Z,99118.00
2022-10-31T17:50:09.541Z,99123.53
2022-10-31T17:52:36.081Z,99114.41
2022-10-31T17:55:02.756Z,99107.94
2022-10-31T17:57:33.359Z,99105.00
2022-10-31T18:00:01.600Z,99092.34
2022-10-31T18:02:28.168Z,99098.53
2022-10-31T18:04:54.819Z,99092.94
2022-10-31T18:07:21.353Z,99090.66
2022-10-31T18:09:48.015Z,99086.47
2022-10-31T18:12:15.302Z,99074.72
2022-10-31T18:14:47.258Z,99070.75
2022-10-31T18:17:16.320Z,99063.22
2022-10-31T18:19:42.848Z,99061.63
2022-10-31T18:22:09.379Z,99051.84
2022-10-31T18:24:35.896Z,99035.69
2022-10-31T18:27:02.548Z,99022.22
2022-10-31T18:29:29.065Z,99015.53
2022-10-31T18:31:56.007Z,99016.94
2022-10-31T18:34:23.955Z,99010.28
2022-10-31T18:36:50.916Z,98999.09
2022-10-31T18:39:17.946Z,98988.69
2022-10-31T18:41:44.516Z,98971.75
2022-10-31T18:44:11.059Z,98954.47
2022-10-31T18:46:37.891Z,98953.47
2022-10-31T18:49:04.943Z,98960.81
2022-10-31T18:51:33.031Z,98964.22
2022-10-31T18:54:00.988Z,98987.34
2022-10-31T18:56:28.612Z,98988.94
2022-10-31T18:58:55.145Z,98998.56
2022-10-31T19:01:22.453Z,99014.75
2022-10-31T19:03:55.008Z,99020.47
2022-10-31T19:06:22.058Z,99013.69
2022-10-31T19:08:49.911Z,99018.59
2022-10-31T19:11:16.412Z,99024.88
2022-10-31T19:13:42.991Z,99027.66
2022-10-31T19:16:11.692Z,99023.88
2022-10-31T19:18:39.295Z,99016.94
2022-10-31T19:21:06.696Z,99017.50
2022-10-31T19:23:33.502Z,99027.91
2022-10-31T19:26:01.565Z,99037.16
2022-10-31T19:28:29.769Z,99033.00
2022-10-31T19:30:56.310Z,99027.75
2022-10-31T19:33:22.994Z,99026.22
2022-10-31T19:35:49.501Z,99027.25
2022-10-31T19:38:16.087Z,99026.84
2022-10-31T19:40:42.620Z,99023.44
2022-10-31T19:43:10.646Z,99030.16
2022-10-31T19:45:37.207Z,99030.16
2022-10-31T19:48:04.411Z,99027.09
2022-10-31T19:50:31.125Z,99016.06
2022-10-31T19:52:57.801Z,99018.13
2022-10-31T19:55:24.334Z,99002.84
2022-10-31T19:58:01.796Z,99005.78
2022-10-31T20:00:30.048Z,99004.44
2022-10-31T20:02:56.548Z,98998.84
2022-10-31T20:05:23.029Z,98987.00
2022-10-31T20:07:49.550Z,98980.19
2022-10-31T20:10:16.549Z,98976.91
2022-10-31T20:12:43.205Z,98951.78
2022-10-31T20:15:10.203Z,98962.91
2022-10-31T20:17:38.096Z,98954.94
2022-10-31T20:20:05.664Z,98953.56
2022-10-31T20:22:32.517Z,98956.53
2022-10-31T20:24:59.021Z,98951.97
2022-10-31T20:27:25.651Z,98958.88
2022-10-31T20:29:52.146Z,98952.81
2022-10-31T20:32:19.977Z,98935.59
2022-10-31T20:37:19.392Z,98941.81
2022-10-31T20:39:45.928Z,98954.00
2022-10-31T20:42:12.452Z,98960.22
2022-10-31T20:44:38.972Z,98970.66
2022-10-31T20:47:05.476Z,98965.41
2022-10-31T20:49:32.078Z,98963.38
2022-10-31T20:51:59.929Z,98968.22
2022-10-31T20:54:29.255Z,98968.31
2022-10-31T20:56:55.788Z,98974.94
2022-10-31T20:59:22.306Z,98988.09
2022-10-31T21:01:48.927Z,98980.94
2022-10-31T21:04:15.547Z,98990.44
2022-10-31T21:06:46.621Z,99000.72
2022-10-31T21:09:17.236Z,99003.44
2022-10-31T21:11:43.870Z,99016.03
2022-10-31T21:14:10.378Z,99025.94
2022-10-31T21:16:37.069Z,99013.13
2022-10-31T21:19:04.632Z,99014.72
2022-10-31T21:21:32.939Z,99020.84
2022-10-31T21:24:01.254Z,99022.28
2022-10-31T21:26:31.193Z,99023.31
2022-10-31T21:28:59.202Z,99033.50
2022-10-31T21:31:26.459Z,99030.22
2022-10-31T21:33:53.022Z,99025.97
2022-10-31T21:36:19.876Z,99019.19
2022-10-31T21:38:49.884Z,99021.63
2022-10-31T21:41:16.530Z,99032.19
2022-10-31T21:43:45.846Z,99023.91
2022-10-31T21:46:14.602Z,99021.69
2022-10-31T21:48:42.402Z,99017.44
2022-10-31T21:51:10.587Z,99008.91
2022-10-31T21:53:37.386Z,99019.97
2022-10-31T21:56:04.439Z,99009.28
2022-10-31T21:58:34.701Z,99016.34
2022-10-31T22:01:06.115Z,99017.19
2022-10-31T22:03:35.133Z,99028.44
2022-10-31T22:06:02.739Z,99021.22
2022-10-31T22:08:29.267Z,99017.91
2022-10-31T22:10:55.806Z,99006.41
2022-10-31T22:13:22.336Z,99010.13
2022-10-31T22:15:48.866Z,99005.31
2022-10-31T22:18:16.750Z,99014.47
2022-10-31T22:20:43.249Z,99007.75
2022-10-31T22:23:09.847Z,99008.06
2022-10-31T22:25:36.366Z,99012.91
2022-10-31T22:28:03.650Z,98998.69
2022-10-31T22:30:30.330Z,99000.91
2022-10-31T22:32:56.915Z,99003.63
2022-10-31T22:35:24.822Z,98992.00
2022-10-31T22:37:51.353Z,98991.31
2022-10-31T22:40:17.843Z,98988.09
2022-10-31T22:42:44.334Z,98988.09
2022-10-31T22:45:11.058Z,98981.03
2022-10-31T22:50:11.039Z,98985.84
2022-10-31T22:52:38.986Z,98968.94
2022-10-31T22:55:06.345Z,98968.66
2022-10-31T22:57:32.975Z,98964.19
2022-10-31T22:59:59.474Z,98959.38
2022-10-31T23:02:27.349Z,98962.25
2022-10-31T23:04:53.936Z,98957.13
2022-10-31T23:07:23.188Z,98943.56
2022-10-31T23:09:51.995Z,98934.16
2022-10-31T23:12:18.662Z,98934.78
2022-10-31T23:14:45.212Z,98931.59
2022-10-31T23:17:11.818Z,98934.16
2022-10-31T23:19:38.311Z,98932.59
2022-10-31T23:22:04.833Z,98915.50
2022-10-31T23:24:33.662Z,98912.59
2022-10-31T23:27:03.994Z,98915.47
2022-10-31T23:29:30.489Z,98917.06
2022-10-31T23:31:57.018Z,98906.97
2022-10-31T23:34:23.616Z,98912.88
2022-10-31T23:36:50.204Z,98914.63
2022-10-31T23:39:19.913Z,98917.81
2022-10-31T23:41:49.286Z,98911.38
2022-10-31T23:44:17.273Z,98910.25
2022-10-31T23:46:44.059Z,98897.94
2022-10-31T23:49:11.300Z,98905.09
2022-10-31T23:51:37.844Z,98903.66
2022-10-31T23:54:04.706Z,98902.38
2022-10-31T23:56:31.337Z,98889.13
2022-10-31T23:58:57.849Z,98898.38
